Time;durP1;ratioP1;P1;durP2;ratioP2;P2;SDS_P1;SDS_P2;PMS_P1;PMS_P2;Temp;Humidity;BMP_temperature;BMP_pressure;BME280_temperature;BME280_humidity;BME280_pressure;Samples;Min_cycle;Max_cycle;Signal;HPM_P1;HPM_P2
2023/03/19 00:01:23;;;;;;;;;0.33;0.33;;;;;14.92;100.00;100929.25;5029300;28;45412;-77
2023/03/19 00:03:48;;;;;;;;;3.00;1.33;;;;;14.91;100.00;100927.44;5028683;28;64722;-77
2023/03/19 00:06:13;;;;;;;;;0.67;0.67;;;;;14.93;100.00;100936.31;5004227;28;45504;-77
2023/03/19 00:08:39;;;;;;;;;4.00;1.00;;;;;14.92;100.00;100934.56;5011492;28;52856;-77
2023/03/19 00:11:10;;;;;;;;;3.00;1.00;;;;;14.91;100.00;100938.09;5028485;28;45420;-77
2023/03/19 00:13:35;;;;;;;;;0.00;0.00;;;;;14.91;100.00;100938.09;5027316;28;45307;-76
2023/03/19 00:16:01;;;;;;;;;1.00;1.00;;;;;14.92;100.00;100934.56;5026703;28;46699;-78
2023/03/19 00:18:26;;;;;;;;;1.00;1.00;;;;;14.93;100.00;100941.63;5026033;28;72738;-77
2023/03/19 00:20:52;;;;;;;;;1.00;1.00;;;;;14.90;100.00;100939.84;5010136;28;45368;-78
2023/03/19 00:23:17;;;;;;;;;1.33;1.33;;;;;14.89;100.00;100946.06;5004752;28;46428;-76
2023/03/19 00:25:42;;;;;;;;;2.67;1.00;;;;;14.87;100.00;100947.88;5019724;28;51102;-77
2023/03/19 00:28:08;;;;;;;;;2.00;0.33;;;;;14.85;100.00;100940.78;5035156;28;66191;-78
2023/03/19 00:30:34;;;;;;;;;3.67;1.00;;;;;14.82;100.00;100946.13;5143454;22;46162;-78
2023/03/19 00:33:00;;;;;;;;;2.00;1.00;;;;;14.80;100.00;100945.22;5038625;28;45374;-78
2023/03/19 00:35:25;;;;;;;;;1.00;1.00;;;;;14.79;100.00;100946.13;5032864;28;45355;-77
2023/03/19 00:37:51;;;;;;;;;1.00;1.00;;;;;14.81;100.00;100957.66;5023527;28;45719;-77
2023/03/19 00:40:17;;;;;;;;;3.00;2.00;;;;;14.78;100.00;100969.16;5002955;28;45321;-77
2023/03/19 00:42:43;;;;;;;;;1.67;1.67;;;;;14.77;100.00;100961.22;5031189;28;45399;-77
2023/03/19 00:45:09;;;;;;;;;2.00;2.00;;;;;14.73;100.00;100965.63;5036745;28;45412;-78
2023/03/19 00:47:35;;;;;;;;;1.00;1.00;;;;;14.71;100.00;100963.91;5036494;28;47305;-78
2023/03/19 00:50:00;;;;;;;;;2.33;1.67;;;;;14.67;100.00;100957.69;5031636;28;64964;-77
2023/03/19 00:52:26;;;;;;;;;1.00;1.00;;;;;14.66;100.00;100966.56;5034812;28;45427;-77
2023/03/19 00:54:51;;;;;;;;;1.00;1.00;;;;;14.63;100.00;100956.81;5027756;28;51880;-77
2023/03/19 00:57:16;;;;;;;;;1.00;1.00;;;;;14.62;100.00;100952.41;5030829;28;67609;-77
2023/03/19 00:59:42;;;;;;;;;1.00;1.00;;;;;14.64;100.00;100960.34;5025444;28;68123;-77
2023/03/19 01:02:07;;;;;;;;;1.33;1.00;;;;;14.65;100.00;100968.34;5030871;28;61589;-77
2023/03/19 01:04:32;;;;;;;;;2.00;2.00;;;;;14.64;100.00;100966.53;5022716;28;62544;-78
2023/03/19 01:06:59;;;;;;;;;2.00;1.00;;;;;14.66;100.00;100974.53;5032414;28;71845;-77
2023/03/19 01:09:24;;;;;;;;;2.67;2.00;;;;;14.67;100.00;100978.97;5034388;28;45379;-78
2023/03/19 01:11:49;;;;;;;;;1.00;1.00;;;;;14.67;100.00;100977.19;5035933;28;45276;-76
2023/03/19 01:14:16;;;;;;;;;2.33;2.00;;;;;14.63;100.00;100979.84;5030694;28;45450;-77
2023/03/19 01:16:41;;;;;;;;;2.33;2.00;;;;;14.62;100.00;100986.06;5038062;28;46755;-78
2023/03/19 01:19:06;;;;;;;;;2.67;2.00;;;;;14.60;100.00;100988.72;5034754;28;66516;-77
2023/03/19 01:21:32;;;;;;;;;4.67;2.00;;;;;14.59;100.00;100986.06;5035038;28;62332;-78
2023/03/19 01:23:58;;;;;;;;;3.00;2.00;;;;;14.59;100.00;100984.28;5013470;28;45332;-78
2023/03/19 01:26:23;;;;;;;;;2.67;2.67;;;;;14.58;100.00;100979.84;5032566;28;70594;-77
2023/03/19 01:28:49;;;;;;;;;2.67;2.00;;;;;14.58;100.00;100978.97;5025635;28;68353;-78
2023/03/19 01:31:14;;;;;;;;;2.00;2.00;;;;;14.60;100.00;100982.53;5034900;28;63156;-78
2023/03/19 01:33:40;;;;;;;;;2.00;2.00;;;;;14.58;100.00;100982.50;5010985;28;45507;-78
2023/03/19 01:36:06;;;;;;;;;1.33;1.33;;;;;14.59;100.00;100978.09;5011963;28;45372;-78
2023/03/19 01:38:32;;;;;;;;;2.67;2.00;;;;;14.56;100.00;100973.69;5026782;28;45656;-77
2023/03/19 01:40:57;;;;;;;;;3.00;3.00;;;;;14.58;100.00;100981.63;5015100;28;65271;-77
2023/03/19 01:43:24;;;;;;;;;3.00;3.00;;;;;14.57;100.00;100979.88;5024522;28;45363;-76
2023/03/19 01:46:05;;;;;;;;;4.00;2.00;;;;;14.56;100.00;100986.09;5003772;28;46842;-77
2023/03/19 01:48:43;;;;;;;;;2.00;2.00;;;;;14.52;100.00;100979.88;5020590;28;45420;-77
2023/03/19 01:51:12;;;;;;;;;2.00;2.00;;;;;14.49;100.00;100977.25;5012000;28;45513;-78
2023/03/19 01:53:39;;;;;;;;;2.00;2.00;;;;;14.47;100.00;100979.00;5000467;28;45432;-77
2023/03/19 01:56:21;;;;;;;;;2.33;2.00;;;;;14.48;100.00;100990.53;5013095;28;45828;-77
2023/03/19 01:58:50;;;;;;;;;2.67;2.67;;;;;14.45;100.00;100975.44;5018295;28;45360;-77
2023/03/19 02:01:16;;;;;;;;;3.00;3.00;;;;;14.44;100.00;100973.69;5019174;28;45344;-76
2023/03/19 02:03:42;;;;;;;;;2.33;2.00;;;;;14.40;100.00;100974.56;5034008;28;45633;-76
2023/03/19 02:06:09;;;;;;;;;3.67;2.67;;;;;14.36;100.00;100972.81;5031201;28;73358;-77
2023/03/19 02:08:36;;;;;;;;;5.00;2.00;;;;;14.29;100.00;100965.75;5019072;28;45260;-76
2023/03/19 02:11:01;;;;;;;;;3.00;3.00;;;;;14.31;100.00;100970.16;4999071;28;45435;-77
2023/03/19 02:13:27;;;;;;;;;4.33;2.67;;;;;14.27;100.00;100962.19;5034522;28;45232;-78
2023/03/19 02:15:53;;;;;;;;;4.67;4.00;;;;;14.27;100.00;100962.19;5029356;28;48077;-77
2023/03/19 02:18:19;;;;;;;;;4.33;3.00;;;;;14.25;100.00;100959.56;5011000;28;68166;-77
2023/03/19 02:20:59;;;;;;;;;3.00;3.00;;;;;14.25;100.00;100956.91;5017749;28;45439;-78
2023/03/19 02:23:45;;;;;;;;;2.00;2.00;;;;;14.24;100.00;100957.78;5019277;28;45397;-78
2023/03/19 02:26:13;;;;;;;;;4.33;3.00;;;;;14.28;100.00;100971.97;5009302;28;48267;-77
2023/03/19 02:28:41;;;;;;;;;3.00;3.00;;;;;14.28;100.00;100964.00;5002571;28;45295;-77
2023/03/19 02:31:07;;;;;;;;;4.33;3.33;;;;;14.27;100.00;100959.53;5035119;28;45281;-77
2023/03/19 02:33:32;;;;;;;;;4.00;4.00;;;;;14.28;100.00;100967.53;5029819;28;45378;-78
2023/03/19 02:35:58;;;;;;;;;3.00;3.00;;;;;14.31;100.00;100967.50;5028669;28;45781;-78
2023/03/19 02:38:24;;;;;;;;;3.00;3.00;;;;;14.32;100.00;100966.59;5015896;28;45399;-78
2023/03/19 02:40:54;;;;;;;;;3.00;1.00;;;;;14.32;100.00;100966.59;5001001;28;45538;-77
2023/03/19 02:43:21;;;;;;;;;3.00;3.00;;;;;14.32;100.00;100973.69;5006760;28;46530;-77
2023/03/19 02:45:46;;;;;;;;;4.67;3.00;;;;;14.30;100.00;100980.78;4986586;28;47702;-77
2023/03/19 02:48:11;;;;;;;;;3.67;3.67;;;;;14.30;100.00;100972.81;5003972;28;45395;-78
2023/03/19 02:50:37;;;;;;;;;4.33;3.67;;;;;14.28;100.00;100970.19;5025319;28;52528;-77
2023/03/19 02:53:02;;;;;;;;;3.33;3.33;;;;;14.27;100.00;100971.03;5022072;28;65940;-77
2023/03/19 02:55:27;;;;;;;;;2.33;2.33;;;;;14.27;100.00;100976.34;5036889;28;46479;-78
2023/03/19 02:57:53;;;;;;;;;3.00;3.00;;;;;14.24;100.00;100962.22;5032730;28;67071;-78
2023/03/19 03:00:19;;;;;;;;;5.33;3.67;;;;;14.23;100.00;100973.75;5038690;28;45504;-77
2023/03/19 03:02:45;;;;;;;;;4.00;2.67;;;;;14.16;100.00;100965.75;5032821;28;45490;-77
2023/03/19 03:05:10;;;;;;;;;5.33;2.00;;;;;14.20;100.00;100979.03;5013646;28;46067;-77
2023/03/19 03:07:36;;;;;;;;;6.00;3.00;;;;;14.18;100.00;100965.78;4993337;28;45333;-77
2023/03/19 03:10:02;;;;;;;;;4.00;4.00;;;;;14.18;100.00;100981.72;5027634;28;45218;-77
2023/03/19 03:12:27;;;;;;;;;3.00;3.00;;;;;14.19;100.00;100990.56;5025746;28;45432;-77
2023/03/19 03:14:52;;;;;;;;;4.33;3.00;;;;;14.17;100.00;100990.56;5022847;28;71404;-78
2023/03/19 03:17:18;;;;;;;;;4.00;2.00;;;;;14.19;100.00;100987.91;5025550;28;59767;-77
2023/03/19 03:19:43;;;;;;;;;5.67;3.00;;;;;14.19;100.00;100986.13;5019099;28;65040;-77
2023/03/19 03:22:08;;;;;;;;;6.00;3.00;;;;;14.15;100.00;100984.34;5003585;28;49583;-77
2023/03/19 03:24:34;;;;;;;;;3.00;1.00;;;;;14.14;100.00;100980.81;5017541;28;46722;-78
2023/03/19 03:26:59;;;;;;;;;4.67;4.00;;;;;14.13;100.00;100980.81;5018894;28;62265;-77
2023/03/19 03:29:25;;;;;;;;;5.33;3.67;;;;;14.13;100.00;100984.38;5036642;28;45435;-78
2023/03/19 03:31:50;;;;;;;;;5.00;4.00;;;;;14.13;100.00;100978.16;5014494;28;45479;-77
2023/03/19 03:34:16;;;;;;;;;5.67;4.00;;;;;14.14;100.00;100986.13;5033436;28;46419;-77
2023/03/19 03:36:41;;;;;;;;;6.00;6.00;;;;;14.16;100.00;100992.31;5012738;28;45430;-77
2023/03/19 03:39:07;;;;;;;;;5.67;4.00;;;;;14.19;100.00;100999.41;5029390;28;45360;-78
2023/03/19 03:41:32;;;;;;;;;5.00;4.00;;;;;14.18;100.00;100987.00;5012725;28;45603;-77
2023/03/19 03:43:57;;;;;;;;;5.00;5.00;;;;;14.17;100.00;100990.56;5017798;28;47679;-77
2023/03/19 03:46:23;;;;;;;;;5.67;4.00;;;;;14.19;100.00;100993.22;5025650;28;64957;-77
2023/03/19 03:48:50;;;;;;;;;6.33;1.67;;;;;14.20;100.00;100997.63;5021455;28;45339;-78
2023/03/19 03:51:16;;;;;;;;;6.00;4.00;;;;;14.19;100.00;100994.09;5034200;28;45538;-77
2023/03/19 03:53:42;;;;;;;;;6.33;4.00;;;;;14.19;100.00;100999.41;5028188;28;46458;-77
2023/03/19 03:56:07;;;;;;;;;3.00;3.00;;;;;14.16;100.00;101002.94;5021138;28;63465;-77
2023/03/19 03:58:32;;;;;;;;;4.33;3.67;;;;;14.16;100.00;101007.34;5016505;28;60738;-77
2023/03/19 04:00:58;;;;;;;;;7.67;4.00;;;;;14.15;100.00;101001.16;5026441;28;61032;-76
2023/03/19 04:03:23;;;;;;;;;5.67;4.33;;;;;14.12;100.00;101003.84;5034057;28;68677;-77
2023/03/19 04:05:49;;;;;;;;;4.33;4.33;;;;;14.13;100.00;101002.94;5033849;28;45296;-77
2023/03/19 04:08:15;;;;;;;;;4.00;4.00;;;;;14.13;100.00;101002.94;5017962;28;45270;-78
2023/03/19 04:10:41;;;;;;;;;6.00;4.00;;;;;14.14;100.00;101012.69;5013255;28;62641;-77
2023/03/19 04:13:07;;;;;;;;;4.00;2.67;;;;;14.15;100.00;101013.56;5030993;28;47229;-77
2023/03/19 04:15:33;;;;;;;;;3.00;3.00;;;;;14.13;100.00;101004.72;5029677;28;45473;-76
2023/03/19 04:17:58;;;;;;;;;5.00;3.33;;;;;14.10;100.00;101013.56;5026254;28;63695;-77
2023/03/19 04:20:24;;;;;;;;;6.00;3.67;;;;;14.10;100.00;101012.69;5026272;28;64009;-77
2023/03/19 04:22:49;;;;;;;;;6.00;4.67;;;;;14.09;100.00;101006.50;5022968;28;46340;-78
2023/03/19 04:25:15;;;;;;;;;2.00;0.00;;;;;14.01;100.00;101008.28;5006390;28;45396;-78
2023/03/19 04:27:41;;;;;;;;;7.67;5.00;;;;;13.92;100.00;101015.34;5028604;28;45541;-77
2023/03/19 04:30:08;;;;;;;;;6.33;4.33;;;;;13.78;100.00;101012.69;5017970;28;63120;-78
2023/03/19 04:32:34;;;;;;;;;4.33;4.33;;;;;13.68;100.00;101017.09;5036596;28;45258;-77
2023/03/19 04:35:00;;;;;;;;;6.00;3.67;;;;;13.60;100.00;101019.75;5033816;28;45894;-77
2023/03/19 04:37:25;;;;;;;;;5.33;4.67;;;;;13.53;100.00;101012.66;5039049;28;45374;-76
2023/03/19 04:39:52;;;;;;;;;9.00;4.67;;;;;13.48;100.00;101019.72;5020677;28;45553;-78
2023/03/19 04:42:17;;;;;;;;;4.00;4.00;;;;;13.47;100.00;101011.75;5033263;28;46021;-78
2023/03/19 04:44:43;;;;;;;;;3.00;3.00;;;;;13.44;100.00;101012.63;5019329;28;45457;-77
2023/03/19 04:47:09;;;;;;;;;1.00;1.00;;;;;13.44;100.00;101011.75;5025872;28;63145;-77
2023/03/19 04:49:35;;;;;;;;;5.00;5.00;;;;;13.41;100.00;101001.13;5035593;28;45294;-77
2023/03/19 04:52:01;;;;;;;;;7.00;4.67;;;;;13.41;100.00;101007.31;5027893;28;47251;-78
2023/03/19 04:54:27;;;;;;;;;5.00;5.00;;;;;13.40;100.00;101010.84;5036351;28;45416;-76
2023/03/19 04:56:52;;;;;;;;;4.33;4.00;;;;;13.41;100.00;101017.91;5030917;28;45416;-78
2023/03/19 04:59:17;;;;;;;;;4.00;4.00;;;;;13.40;100.00;101016.16;5030121;28;45205;-77
2023/03/19 05:01:43;;;;;;;;;4.00;4.00;;;;;13.44;100.00;101025.91;5029989;28;46838;-77
2023/03/19 05:04:08;;;;;;;;;7.00;5.00;;;;;13.43;100.00;101017.94;5027238;28;45246;-77
2023/03/19 05:06:35;;;;;;;;;6.33;5.67;;;;;13.47;100.00;101022.34;5021966;28;61231;-77
2023/03/19 05:09:01;;;;;;;;;7.00;7.00;;;;;13.48;100.00;101026.81;5027275;28;45622;-77
2023/03/19 05:11:26;;;;;;;;;10.00;8.00;;;;;13.49;100.00;101033.88;5011274;28;45548;-77
2023/03/19 05:13:51;;;;;;;;;4.33;4.33;;;;;13.53;100.00;101035.63;5019371;28;45388;-77
2023/03/19 05:16:17;;;;;;;;;5.00;5.00;;;;;13.54;100.00;101033.00;5026614;28;57417;-76
2023/03/19 05:18:42;;;;;;;;;7.67;6.67;;;;;13.59;100.00;101046.28;5034876;28;57274;-76
2023/03/19 05:21:11;;;;;;;;;9.33;6.33;;;;;13.59;100.00;101048.94;5034836;28;69167;-77
2023/03/19 05:23:37;;;;;;;;;7.00;7.00;;;;;13.59;100.00;101055.13;5032015;28;45229;-77
2023/03/19 05:26:02;;;;;;;;;10.67;6.00;;;;;13.59;100.00;101044.50;5033006;28;45312;-77
2023/03/19 05:28:28;;;;;;;;;7.33;7.33;;;;;13.60;100.00;101051.59;5029988;28;45205;-77
2023/03/19 05:30:54;;;;;;;;;8.00;6.33;;;;;13.61;100.00;101050.69;5025476;28;47001;-77
2023/03/19 05:33:21;;;;;;;;;6.33;6.33;;;;;13.61;100.00;101042.72;5031528;28;45463;-78
2023/03/19 05:35:47;;;;;;;;;11.33;10.00;;;;;13.63;100.00;101053.34;5026914;28;45477;-77
2023/03/19 05:38:12;;;;;;;;;9.00;7.33;;;;;13.64;100.00;101057.78;5028562;28;64892;-76
2023/03/19 05:40:40;;;;;;;;;13.00;8.00;;;;;13.63;100.00;101062.22;5023208;28;45878;-77
2023/03/19 05:43:06;;;;;;;;;9.33;8.00;;;;;13.62;100.00;101065.72;5027450;28;46026;-77
2023/03/19 05:45:31;;;;;;;;;6.00;6.00;;;;;13.62;100.00;101060.41;5011488;28;45444;-77
2023/03/19 05:47:57;;;;;;;;;8.67;8.67;;;;;13.63;100.00;101075.47;5018975;28;62472;-77
2023/03/19 05:50:22;;;;;;;;;9.00;7.00;;;;;13.65;100.00;101072.81;5003102;28;45605;-77
2023/03/19 05:52:47;;;;;;;;;7.67;6.33;;;;;13.67;100.00;101076.34;5013323;28;46094;-77
2023/03/19 05:55:13;;;;;;;;;10.67;6.00;;;;;13.68;100.00;101078.13;5034851;28;59500;-77
2023/03/19 05:57:38;;;;;;;;;8.33;8.00;;;;;13.69;100.00;101071.03;5015186;28;45522;-78
2023/03/19 06:00:05;;;;;;;;;5.00;5.00;;;;;13.69;100.00;101069.31;5027328;28;46249;-76
2023/03/19 06:02:31;;;;;;;;;7.00;5.67;;;;;13.68;100.00;101069.28;5025951;28;45572;-77
2023/03/19 06:04:56;;;;;;;;;7.00;6.00;;;;;13.68;100.00;101071.94;5027978;28;45491;-77
2023/03/19 06:07:21;;;;;;;;;10.67;7.00;;;;;13.69;100.00;101093.19;5028007;28;61653;-77
2023/03/19 06:09:47;;;;;;;;;11.33;7.00;;;;;13.70;100.00;101097.59;5022392;28;66279;-77
2023/03/19 06:12:12;;;;;;;;;7.33;6.00;;;;;13.73;100.00;101092.28;5025414;28;69289;-77
2023/03/19 06:14:37;;;;;;;;;6.00;6.00;;;;;13.74;100.00;101094.09;5002950;28;45478;-77
2023/03/19 06:17:02;;;;;;;;;8.67;6.33;;;;;13.74;100.00;101091.44;5024494;28;63665;-77
2023/03/19 06:19:28;;;;;;;;;7.00;7.00;;;;;13.76;100.00;101105.56;5019456;28;53501;-77
2023/03/19 06:21:53;;;;;;;;;8.00;5.67;;;;;13.75;100.00;101100.28;5017158;28;62013;-77
2023/03/19 06:24:18;;;;;;;;;6.00;6.00;;;;;13.78;100.00;101116.19;5024376;28;66024;-77
2023/03/19 06:26:44;;;;;;;;;10.33;6.00;;;;;13.77;100.00;101117.06;5033326;28;62281;-77
2023/03/19 06:29:09;;;;;;;;;5.67;5.00;;;;;13.79;100.00;101125.91;5033134;28;45549;-77
2023/03/19 06:31:35;;;;;;;;;7.67;7.67;;;;;13.78;100.00;101124.16;5035145;28;45239;-77
2023/03/19 06:34:00;;;;;;;;;7.67;7.67;;;;;13.77;100.00;101122.38;5013842;28;45321;-77
2023/03/19 06:36:25;;;;;;;;;13.00;10.33;;;;;13.74;100.00;101112.66;5014480;28;60329;-78
2023/03/19 06:38:51;;;;;;;;;9.67;6.67;;;;;13.71;100.00;101122.38;5027246;28;45809;-77
2023/03/19 06:41:16;;;;;;;;;12.33;8.67;;;;;13.68;100.00;101122.34;5029607;28;68683;-77
2023/03/19 06:43:42;;;;;;;;;11.00;7.67;;;;;13.67;100.00;101121.47;5030452;28;45229;-77
2023/03/19 06:46:08;;;;;;;;;7.00;6.00;;;;;13.68;100.00;101122.34;5024556;28;45608;-78
2023/03/19 06:48:34;;;;;;;;;8.33;6.67;;;;;13.68;100.00;101127.66;5017637;28;46573;-77
2023/03/19 06:51:00;;;;;;;;;6.33;6.33;;;;;13.65;100.00;101115.28;5020858;28;45229;-77
2023/03/19 06:53:26;;;;;;;;;8.00;6.00;;;;;13.67;100.00;101128.53;5035126;28;45253;-76
2023/03/19 06:55:51;;;;;;;;;7.00;5.67;;;;;13.66;100.00;101119.69;5016036;28;45487;-77
2023/03/19 06:58:17;;;;;;;;;12.33;6.33;;;;;13.70;100.00;101121.47;5029898;28;69023;-76
2023/03/19 07:00:42;;;;;;;;;7.00;7.00;;;;;13.71;100.00;101130.31;5035815;28;45224;-76
2023/03/19 07:03:08;;;;;;;;;11.00;7.67;;;;;13.76;100.00;101131.22;5025222;28;63471;-77
2023/03/19 07:05:34;;;;;;;;;10.00;7.33;;;;;13.79;100.00;101123.25;5030908;28;45653;-78
2023/03/19 07:07:59;;;;;;;;;8.00;6.67;;;;;13.81;100.00;101125.03;5024681;28;46430;-77
2023/03/19 07:10:24;;;;;;;;;6.33;6.00;;;;;13.85;100.00;101132.16;5026071;28;66735;-79
2023/03/19 07:12:50;;;;;;;;;8.00;8.00;;;;;13.89;100.00;101119.75;5020722;28;45243;-79
2023/03/19 07:15:16;;;;;;;;;7.00;6.00;;;;;13.91;100.00;101133.94;5022025;28;56361;-79
2023/03/19 07:17:44;;;;;;;;;5.33;4.00;;;;;13.96;100.00;101144.56;5021888;28;46790;-78
2023/03/19 07:20:10;;;;;;;;;6.00;5.33;;;;;13.94;100.00;101139.22;5018979;28;45456;-79
2023/03/19 07:22:35;;;;;;;;;10.67;6.00;;;;;13.92;100.00;101138.34;4999054;28;45493;-79
2023/03/19 07:25:01;;;;;;;;;6.00;4.00;;;;;13.91;100.00;101138.34;5005709;28;63615;-79
2023/03/19 07:27:26;;;;;;;;;4.00;4.00;;;;;13.81;100.00;101140.97;5013633;28;47272;-79
2023/03/19 07:29:52;;;;;;;;;5.00;5.00;;;;;13.77;100.00;101139.19;5029233;28;47464;-79
2023/03/19 07:32:17;;;;;;;;;8.33;7.00;;;;;13.71;100.00;101143.59;5016379;28;45353;-77
2023/03/19 07:34:42;;;;;;;;;6.67;6.67;;;;;13.66;100.00;101143.56;5032404;28;45250;-77
2023/03/19 07:37:08;;;;;;;;;6.33;4.00;;;;;13.63;100.00;101138.25;5035068;28;56711;-78
2023/03/19 07:39:33;;;;;;;;;6.00;6.00;;;;;13.58;100.00;101143.56;5035483;28;65641;-77
2023/03/19 07:41:59;;;;;;;;;4.33;3.33;;;;;13.57;100.00;101138.22;5039695;28;45312;-77
2023/03/19 07:44:24;;;;;;;;;5.00;5.00;;;;;13.55;100.00;101140.00;5039132;28;45466;-78
2023/03/19 07:46:49;;;;;;;;;4.67;4.67;;;;;13.55;100.00;101156.81;5021091;28;46494;-78
2023/03/19 07:49:15;;;;;;;;;8.00;6.00;;;;;13.53;100.00;101147.97;5019921;28;45450;-76
2023/03/19 07:51:40;;;;;;;;;4.00;4.00;;;;;13.53;100.00;101145.31;5028315;28;45538;-77
2023/03/19 07:54:06;;;;;;;;;7.00;5.67;;;;;13.50;100.00;101147.94;5037910;28;45549;-77
2023/03/19 07:56:31;;;;;;;;;3.67;3.67;;;;;13.49;100.00;101151.47;5030537;28;45787;-77
2023/03/19 07:58:58;;;;;;;;;6.00;6.00;;;;;13.46;100.00;101148.81;5028079;28;72275;-78
2023/03/19 08:01:23;;;;;;;;;10.67;5.00;;;;;13.45;100.00;101159.41;5036341;28;45393;-77
2023/03/19 08:03:49;;;;;;;;;5.00;5.00;;;;;13.45;100.00;101168.25;5031767;28;45485;-77
2023/03/19 08:06:14;;;;;;;;;6.67;4.00;;;;;13.48;100.00;101160.31;5033928;28;46269;-78
2023/03/19 08:08:39;;;;;;;;;5.00;5.00;;;;;13.54;100.00;101157.69;5019245;28;66936;-77
2023/03/19 08:11:05;;;;;;;;;6.33;5.00;;;;;13.59;100.00;101161.25;5033909;28;45454;-76
2023/03/19 08:13:31;;;;;;;;;5.00;5.00;;;;;13.66;100.00;101164.81;5031989;28;45600;-75
2023/03/19 08:15:56;;;;;;;;;4.00;4.00;;;;;13.71;100.00;101162.19;5030841;28;70342;-75
2023/03/19 08:18:21;;;;;;;;;5.33;4.00;;;;;13.70;100.00;101173.69;5035395;28;66838;-76
2023/03/19 08:20:47;;;;;;;;;5.00;5.00;;;;;13.63;100.00;101176.31;5034339;28;45563;-75
2023/03/19 08:23:13;;;;;;;;;4.67;4.67;;;;;13.65;100.00;101175.44;5032161;28;45524;-74
2023/03/19 08:25:39;;;;;;;;;6.67;5.00;;;;;13.66;100.00;101175.41;5035320;28;46768;-76
2023/03/19 08:28:04;;;;;;;;;3.67;3.67;;;;;13.71;100.00;101178.09;5035164;28;45314;-75
2023/03/19 08:30:30;;;;;;;;;4.00;4.00;;;;;13.74;100.00;101175.44;5035886;28;55785;-77
2023/03/19 08:32:56;;;;;;;;;3.67;3.67;;;;;13.76;100.00;101189.63;5034627;28;45559;-75
2023/03/19 08:35:22;;;;;;;;;4.00;4.00;;;;;13.72;100.00;101190.47;5026416;28;46716;-75
2023/03/19 08:37:47;;;;;;;;;5.67;4.33;;;;;13.61;100.00;101214.31;5035448;28;45494;-75
2023/03/19 08:40:13;;;;;;;;;6.00;5.00;;;;;13.49;100.00;101214.25;5030459;28;64404;-77
2023/03/19 08:42:40;;;;;;;;;9.67;6.00;;;;;13.45;100.00;101210.69;5025058;28;62919;-76
2023/03/19 08:45:07;;;;;;;;;6.33;5.00;;;;;13.42;100.00;101234.53;5028742;28;46560;-76
2023/03/19 08:47:33;;;;;;;;;6.67;4.67;;;;;13.39;100.00;101238.97;5028561;28;45490;-75
2023/03/19 08:49:58;;;;;;;;;6.67;5.00;;;;;13.37;100.00;101244.28;5028888;28;45633;-77
2023/03/19 08:52:24;;;;;;;;;7.00;7.00;;;;;13.36;100.00;101237.16;5033848;28;45578;-76
2023/03/19 08:54:49;;;;;;;;;3.00;3.00;;;;;13.40;100.00;101248.69;5028800;28;47118;-76
2023/03/19 08:57:15;;;;;;;;;5.67;4.33;;;;;13.39;100.00;101239.84;5029742;28;65512;-75
2023/03/19 08:59:40;;;;;;;;;6.00;4.00;;;;;13.34;100.00;101252.19;5035448;28;63912;-74
2023/03/19 09:02:06;;;;;;;;;5.33;4.00;;;;;13.29;100.00;101251.28;5033308;28;63434;-74
2023/03/19 09:04:36;;;;;;;;;8.33;5.00;;;;;13.24;100.00;101258.31;5017139;28;70093;-76
2023/03/19 09:07:01;;;;;;;;;3.00;3.00;;;;;13.24;100.00;101255.66;5035962;28;45490;-80
2023/03/19 09:09:26;;;;;;;;;9.00;3.00;;;;;13.32;100.00;101267.22;5029751;28;46451;-78
2023/03/19 09:11:52;;;;;;;;;5.00;4.00;;;;;13.39;100.00;101255.75;5031381;28;63897;-77
2023/03/19 09:14:21;;;;;;;;;7.00;4.00;;;;;13.41;100.00;101255.75;5019001;28;47407;-77
2023/03/19 09:16:47;;;;;;;;;4.00;3.00;;;;;13.43;100.00;101254.91;5034301;28;45484;-79
2023/03/19 09:19:13;;;;;;;;;7.67;4.00;;;;;13.49;100.00;101254.06;5036075;28;63935;-80
2023/03/19 09:21:38;;;;;;;;;5.00;3.00;;;;;13.57;100.00;101260.28;5037185;28;45382;-77
2023/03/19 09:24:04;;;;;;;;;5.00;4.00;;;;;13.69;100.00;101264.75;5032257;28;46559;-78
2023/03/19 09:26:30;;;;;;;;;3.33;3.33;;;;;13.75;100.00;101263.03;5035273;28;45463;-78
2023/03/19 09:28:55;;;;;;;;;6.00;4.00;;;;;13.79;100.00;101255.97;5017836;28;45638;-77
2023/03/19 09:31:21;;;;;;;;;6.00;4.00;;;;;13.81;100.00;101257.75;5004878;28;45883;-80
2023/03/19 09:33:46;;;;;;;;;3.00;3.00;;;;;13.80;100.00;101255.09;5010896;28;50718;-77
2023/03/19 09:36:12;;;;;;;;;3.33;2.67;;;;;13.84;100.00;101267.50;5025760;28;54901;-78
2023/03/19 09:38:38;;;;;;;;;4.67;3.33;;;;;13.84;100.00;101263.06;5028188;28;45849;-77
2023/03/19 09:41:18;;;;;;;;;3.67;3.67;;;;;13.92;100.00;101265.78;5024563;28;45854;-77
2023/03/19 09:43:59;;;;;;;;;5.33;4.00;;;;;14.01;100.00;101271.13;5008036;28;48820;-77
2023/03/19 09:46:30;;;;;;;;;3.00;3.00;;;;;14.11;100.00;101270.28;5004152;28;46639;-75
2023/03/19 09:49:23;;;;;;;;;7.00;4.00;;;;;14.21;100.00;101271.16;5007015;28;45523;-76
2023/03/19 09:51:52;;;;;;;;;4.00;4.00;;;;;14.26;100.00;101272.06;5011989;28;45891;-77
2023/03/19 09:54:29;;;;;;;;;4.00;2.67;;;;;14.26;100.00;101280.03;5021782;28;46620;-76
2023/03/19 09:56:55;;;;;;;;;2.67;2.67;;;;;14.22;100.00;101285.34;5026229;28;46402;-79
2023/03/19 09:59:25;;;;;;;;;7.00;5.33;;;;;14.18;100.00;101284.47;5025316;28;45554;-79
2023/03/19 10:02:03;;;;;;;;;3.33;3.00;;;;;14.11;100.00;101295.91;5022147;28;45588;-77
2023/03/19 10:04:50;;;;;;;;;4.67;4.67;;;;;14.02;100.00;101296.78;5024360;28;46847;-78
2023/03/19 10:07:49;;;;;;;;;5.00;5.00;;;;;13.94;100.00;101298.50;5025650;28;45312;-78
2023/03/19 10:10:31;;;;;;;;;4.33;4.33;;;;;13.82;100.00;101296.69;5031404;28;45293;-78
2023/03/19 10:13:15;;;;;;;;;9.33;6.00;;;;;13.80;100.00;101311.72;5034341;28;46598;-78
2023/03/19 10:15:43;;;;;;;;;6.33;3.67;;;;;13.79;100.00;101309.03;5031391;28;46547;-77
2023/03/19 10:18:14;;;;;;;;;6.67;3.67;;;;;13.79;100.00;101309.03;5013932;28;45549;-78
2023/03/19 10:20:47;;;;;;;;;5.33;4.33;;;;;13.76;100.00;101309.94;5018481;28;45530;-78
2023/03/19 10:23:27;;;;;;;;;5.00;5.00;;;;;13.80;100.00;101310.84;5016958;28;45549;-78
2023/03/19 10:25:54;;;;;;;;;6.67;6.00;;;;;13.84;100.00;101312.63;5034831;28;47283;-77
2023/03/19 10:28:20;;;;;;;;;7.67;6.00;;;;;13.82;100.00;101309.97;5017699;28;45278;-78
2023/03/19 10:31:21;;;;;;;;;7.33;6.00;;;;;13.93;100.00;101322.41;5017756;28;45562;-78
2023/03/19 10:34:09;;;;;;;;;5.33;4.67;;;;;14.03;100.00;101317.16;5031397;28;45657;-78
2023/03/19 10:36:35;;;;;;;;;7.67;7.67;;;;;14.15;100.00;101317.19;5030806;28;47680;-77
2023/03/19 10:39:05;;;;;;;;;10.00;7.33;;;;;14.29;100.00;101314.59;5026614;28;45472;-77
2023/03/19 10:41:33;;;;;;;;;10.33;5.67;;;;;14.50;100.00;101318.25;5030366;28;45460;-77
2023/03/19 10:44:02;;;;;;;;;6.33;6.00;;;;;14.53;100.00;101316.47;5022530;28;45381;-77
2023/03/19 10:46:36;;;;;;;;;5.67;5.33;;;;;14.48;100.00;101310.25;5013028;28;47850;-79
2023/03/19 10:49:01;;;;;;;;;9.00;7.00;;;;;14.37;100.00;101334.09;5027356;28;45499;-79
2023/03/19 10:51:27;;;;;;;;;4.33;4.33;;;;;14.28;100.00;101355.34;5028552;28;62738;-79
2023/03/19 10:53:54;;;;;;;;;2.33;2.33;;;;;14.16;100.00;101353.47;5027717;28;65762;-79
2023/03/19 10:56:24;;;;;;;;;1.00;1.00;;;;;14.03;100.00;101354.31;5031457;28;45754;-79
2023/03/19 10:59:01;;;;;;;;;3.00;2.00;;;;;13.92;100.00;101350.72;5028160;28;45531;-79
2023/03/19 11:01:40;;;;;;;;;3.00;2.33;;;;;13.82;100.00;101355.09;5038389;28;45367;-79
2023/03/19 11:04:18;;;;;;;;;1.67;1.67;;;;;13.78;100.00;101357.72;5040677;28;45324;-78
2023/03/19 11:06:51;;;;;;;;;2.33;2.33;;;;;13.76;100.00;101352.41;5032534;28;47536;-79
2023/03/19 11:09:34;;;;;;;;;2.67;1.67;;;;;13.78;100.00;101357.72;5035615;28;45468;-80
2023/03/19 11:12:20;;;;;;;;;2.00;2.00;;;;;13.77;100.00;101356.81;5016774;28;45492;-79
2023/03/19 11:14:50;;;;;;;;;4.00;2.33;;;;;13.78;100.00;101360.34;5019376;28;45298;-80
2023/03/19 11:17:22;;;;;;;;;4.00;3.00;;;;;13.82;100.00;101359.50;5032810;28;47165;-80